sensor_id;sensor_type;location;lat;lon;timestamp;P1;durP1;ratioP1;P2;durP2;ratioP2
47299;SDS011;33036;51.320;17.234;2022-11-20T00:02:48;107.55;;;36.38;;
47299;SDS011;33036;51.320;17.234;2022-11-20T00:06:49;125.93;;;39.63;;
47299;SDS011;33036;51.320;17.234;2022-11-20T00:10:50;134.45;;;42.75;;
47299;SDS011;33036;51.320;17.234;2022-11-20T00:14:51;169.68;;;53.67;;
47299;SDS011;33036;51.320;17.234;2022-11-20T00:18:52;131.35;;;43.17;;
47299;SDS011;33036;51.320;17.234;2022-11-20T00:22:54;205.77;;;67.80;;
47299;SDS011;33036;51.320;17.234;2022-11-20T00:26:54;190.18;;;60.30;;
47299;SDS011;33036;51.320;17.234;2022-11-20T00:35:04;136.63;;;42.50;;
47299;SDS011;33036;51.320;17.234;2022-11-20T00:39:06;119.65;;;40.15;;
47299;SDS011;33036;51.320;17.234;2022-11-20T00:43:06;103.45;;;37.08;;
47299;SDS011;33036;51.320;17.234;2022-11-20T00:47:08;117.15;;;39.50;;
47299;SDS011;33036;51.320;17.234;2022-11-20T00:51:09;116.93;;;37.65;;
47299;SDS011;33036;51.320;17.234;2022-11-20T00:55:12;115.00;;;37.28;;
47299;SDS011;33036;51.320;17.234;2022-11-20T00:59:12;103.97;;;36.55;;
47299;SDS011;33036;51.320;17.234;2022-11-20T01:03:13;105.32;;;35.17;;
47299;SDS011;33036;51.320;17.234;2022-11-20T01:07:14;112.72;;;36.67;;
47299;SDS011;33036;51.320;17.234;2022-11-20T01:11:17;106.15;;;35.50;;
47299;SDS011;33036;51.320;17.234;2022-11-20T01:15:22;104.07;;;35.53;;
47299;SDS011;33036;51.320;17.234;2022-11-20T01:19:23;114.82;;;36.97;;
47299;SDS011;33036;51.320;17.234;2022-11-20T01:23:24;120.05;;;39.38;;
47299;SDS011;33036;51.320;17.234;2022-11-20T01:27:25;118.38;;;40.20;;
47299;SDS011;33036;51.320;17.234;2022-11-20T01:31:30;108.28;;;36.88;;
47299;SDS011;33036;51.320;17.234;2022-11-20T01:35:32;95.75;;;33.42;;
47299;SDS011;33036;51.320;17.234;2022-11-20T01:39:33;98.40;;;35.63;;
47299;SDS011;33036;51.320;17.234;2022-11-20T01:43:34;111.68;;;36.83;;
47299;SDS011;33036;51.320;17.234;2022-11-20T01:47:39;115.97;;;39.75;;
47299;SDS011;33036;51.320;17.234;2022-11-20T01:51:42;107.68;;;37.60;;
47299;SDS011;33036;51.320;17.234;2022-11-20T01:55:47;100.63;;;34.55;;
47299;SDS011;33036;51.320;17.234;2022-11-20T02:00:00;97.97;;;34.00;;
47299;SDS011;33036;51.320;17.234;2022-11-20T02:04:04;94.50;;;33.95;;
47299;SDS011;33036;51.320;17.234;2022-11-20T02:08:06;88.18;;;32.03;;
47299;SDS011;33036;51.320;17.234;2022-11-20T02:12:07;95.22;;;34.38;;
47299;SDS011;33036;51.320;17.234;2022-11-20T02:16:29;90.55;;;34.53;;
47299;SDS011;33036;51.320;17.234;2022-11-20T02:20:31;101.30;;;34.75;;
47299;SDS011;33036;51.320;17.234;2022-11-20T02:24:33;99.53;;;34.58;;
47299;SDS011;33036;51.320;17.234;2022-11-20T02:28:34;104.13;;;36.53;;
47299;SDS011;33036;51.320;17.234;2022-11-20T02:32:35;103.97;;;35.35;;
47299;SDS011;33036;51.320;17.234;2022-11-20T02:36:38;99.50;;;33.20;;
47299;SDS011;33036;51.320;17.234;2022-11-20T02:40:40;99.47;;;33.78;;
47299;SDS011;33036;51.320;17.234;2022-11-20T02:44:41;103.25;;;32.75;;
47299;SDS011;33036;51.320;17.234;2022-11-20T02:48:42;92.00;;;34.72;;
47299;SDS011;33036;51.320;17.234;2022-11-20T02:52:43;97.72;;;34.03;;
47299;SDS011;33036;51.320;17.234;2022-11-20T02:56:44;99.97;;;33.22;;
47299;SDS011;33036;51.320;17.234;2022-11-20T03:00:45;89.00;;;31.85;;
47299;SDS011;33036;51.320;17.234;2022-11-20T03:04:46;88.65;;;31.58;;
47299;SDS011;33036;51.320;17.234;2022-11-20T03:08:47;90.13;;;31.67;;
47299;SDS011;33036;51.320;17.234;2022-11-20T03:12:52;88.07;;;30.98;;
47299;SDS011;33036;51.320;17.234;2022-11-20T03:16:55;87.55;;;31.40;;
47299;SDS011;33036;51.320;17.234;2022-11-20T03:20:59;95.43;;;33.88;;
47299;SDS011;33036;51.320;17.234;2022-11-20T03:25:00;95.47;;;31.63;;
47299;SDS011;33036;51.320;17.234;2022-11-20T03:29:01;91.50;;;32.35;;
47299;SDS011;33036;51.320;17.234;2022-11-20T03:33:04;95.20;;;31.52;;
47299;SDS011;33036;51.320;17.234;2022-11-20T03:37:05;91.28;;;31.85;;
47299;SDS011;33036;51.320;17.234;2022-11-20T03:41:07;101.03;;;33.55;;
47299;SDS011;33036;51.320;17.234;2022-11-20T03:45:10;96.18;;;32.13;;
47299;SDS011;33036;51.320;17.234;2022-11-20T03:49:11;89.95;;;31.13;;
47299;SDS011;33036;51.320;17.234;2022-11-20T03:53:12;93.22;;;31.73;;
47299;SDS011;33036;51.320;17.234;2022-11-20T03:57:13;90.75;;;32.35;;
47299;SDS011;33036;51.320;17.234;2022-11-20T04:01:34;92.18;;;32.05;;
47299;SDS011;33036;51.320;17.234;2022-11-20T04:05:35;97.25;;;33.90;;
47299;SDS011;33036;51.320;17.234;2022-11-20T04:09:36;87.63;;;32.83;;
47299;SDS011;33036;51.320;17.234;2022-11-20T04:13:37;101.28;;;33.58;;
47299;SDS011;33036;51.320;17.234;2022-11-20T04:17:39;93.22;;;32.75;;
47299;SDS011;33036;51.320;17.234;2022-11-20T04:21:40;90.40;;;33.88;;
47299;SDS011;33036;51.320;17.234;2022-11-20T04:25:41;88.07;;;31.10;;
47299;SDS011;33036;51.320;17.234;2022-11-20T04:29:42;92.18;;;29.40;;
47299;SDS011;33036;51.320;17.234;2022-11-20T04:33:43;92.15;;;32.38;;
47299;SDS011;33036;51.320;17.234;2022-11-20T04:37:44;95.75;;;33.10;;
47299;SDS011;33036;51.320;17.234;2022-11-20T04:41:45;103.07;;;32.63;;
47299;SDS011;33036;51.320;17.234;2022-11-20T04:45:50;99.22;;;35.13;;
47299;SDS011;33036;51.320;17.234;2022-11-20T04:49:52;99.63;;;34.63;;
47299;SDS011;33036;51.320;17.234;2022-11-20T04:53:53;91.03;;;33.53;;
47299;SDS011;33036;51.320;17.234;2022-11-20T04:57:54;100.78;;;34.38;;
47299;SDS011;33036;51.320;17.234;2022-11-20T05:01:55;93.30;;;32.28;;
47299;SDS011;33036;51.320;17.234;2022-11-20T05:05:56;96.18;;;32.13;;
47299;SDS011;33036;51.320;17.234;2022-11-20T05:10:00;100.13;;;33.25;;
47299;SDS011;33036;51.320;17.234;2022-11-20T05:14:01;93.90;;;33.10;;
47299;SDS011;33036;51.320;17.234;2022-11-20T05:18:01;85.28;;;31.38;;
47299;SDS011;33036;51.320;17.234;2022-11-20T05:22:04;86.07;;;30.38;;
47299;SDS011;33036;51.320;17.234;2022-11-20T05:26:06;78.15;;;28.30;;
47299;SDS011;33036;51.320;17.234;2022-11-20T05:30:09;83.07;;;29.58;;
47299;SDS011;33036;51.320;17.234;2022-11-20T05:34:10;80.18;;;28.75;;
47299;SDS011;33036;51.320;17.234;2022-11-20T05:38:11;82.35;;;30.10;;
47299;SDS011;33036;51.320;17.234;2022-11-20T05:42:12;77.95;;;28.02;;
47299;SDS011;33036;51.320;17.234;2022-11-20T05:46:31;76.70;;;27.50;;
47299;SDS011;33036;51.320;17.234;2022-11-20T05:50:32;76.68;;;27.90;;
47299;SDS011;33036;51.320;17.234;2022-11-20T05:54:33;76.05;;;27.08;;
47299;SDS011;33036;51.320;17.234;2022-11-20T05:58:34;79.32;;;27.90;;
47299;SDS011;33036;51.320;17.234;2022-11-20T06:02:35;85.45;;;30.95;;
47299;SDS011;33036;51.320;17.234;2022-11-20T06:06:36;87.57;;;27.85;;
47299;SDS011;33036;51.320;17.234;2022-11-20T06:10:37;81.90;;;29.15;;
47299;SDS011;33036;51.320;17.234;2022-11-20T06:14:38;78.10;;;27.95;;
47299;SDS011;33036;51.320;17.234;2022-11-20T06:18:39;84.97;;;28.92;;
47299;SDS011;33036;51.320;17.234;2022-11-20T06:22:40;83.20;;;29.45;;
47299;SDS011;33036;51.320;17.234;2022-11-20T06:26:41;88.10;;;30.88;;
47299;SDS011;33036;51.320;17.234;2022-11-20T06:30:44;93.78;;;33.00;;
47299;SDS011;33036;51.320;17.234;2022-11-20T06:34:46;91.10;;;34.35;;
47299;SDS011;33036;51.320;17.234;2022-11-20T06:38:47;105.22;;;35.65;;
47299;SDS011;33036;51.320;17.234;2022-11-20T06:42:48;100.60;;;33.47;;
47299;SDS011;33036;51.320;17.234;2022-11-20T06:46:49;102.10;;;34.40;;
47299;SDS011;33036;51.320;17.234;2022-11-20T06:50:50;124.85;;;38.17;;
47299;SDS011;33036;51.320;17.234;2022-11-20T06:54:51;121.63;;;38.85;;
47299;SDS011;33036;51.320;17.234;2022-11-20T06:58:52;137.00;;;44.10;;
47299;SDS011;33036;51.320;17.234;2022-11-20T07:02:53;138.23;;;45.22;;
47299;SDS011;33036;51.320;17.234;2022-11-20T07:06:54;122.68;;;39.55;;
47299;SDS011;33036;51.320;17.234;2022-11-20T07:10:59;110.22;;;36.58;;
47299;SDS011;33036;51.320;17.234;2022-11-20T07:15:01;102.38;;;38.10;;
47299;SDS011;33036;51.320;17.234;2022-11-20T07:19:02;115.40;;;38.80;;
47299;SDS011;33036;51.320;17.234;2022-11-20T07:23:03;121.43;;;40.65;;
47299;SDS011;33036;51.320;17.234;2022-11-20T07:27:04;120.53;;;41.00;;
47299;SDS011;33036;51.320;17.234;2022-11-20T07:31:05;112.80;;;39.10;;
47299;SDS011;33036;51.320;17.234;2022-11-20T07:35:09;116.70;;;38.15;;
47299;SDS011;33036;51.320;17.234;2022-11-20T07:39:11;118.68;;;40.10;;
47299;SDS011;33036;51.320;17.234;2022-11-20T07:43:12;105.80;;;39.42;;
47299;SDS011;33036;51.320;17.234;2022-11-20T07:47:13;111.38;;;37.65;;
47299;SDS011;33036;51.320;17.234;2022-11-20T07:51:13;103.28;;;36.33;;
47299;SDS011;33036;51.320;17.234;2022-11-20T07:55:15;99.38;;;35.95;;
47299;SDS011;33036;51.320;17.234;2022-11-20T07:59:16;106.47;;;38.05;;
47299;SDS011;33036;51.320;17.234;2022-11-20T08:03:17;111.50;;;39.20;;
47299;SDS011;33036;51.320;17.234;2022-11-20T08:07:18;113.97;;;40.35;;
47299;SDS011;33036;51.320;17.234;2022-11-20T08:11:19;107.85;;;39.55;;
47299;SDS011;33036;51.320;17.234;2022-11-20T08:15:39;117.75;;;43.65;;
47299;SDS011;33036;51.320;17.234;2022-11-20T08:19:41;119.38;;;45.50;;
47299;SDS011;33036;51.320;17.234;2022-11-20T08:23:42;110.70;;;41.15;;
47299;SDS011;33036;51.320;17.234;2022-11-20T08:27:43;115.28;;;41.33;;
47299;SDS011;33036;51.320;17.234;2022-11-20T08:31:44;115.82;;;40.72;;
47299;SDS011;33036;51.320;17.234;2022-11-20T08:36:05;126.10;;;42.38;;
47299;SDS011;33036;51.320;17.234;2022-11-20T08:40:10;115.80;;;41.38;;
47299;SDS011;33036;51.320;17.234;2022-11-20T08:44:12;128.57;;;45.60;;
47299;SDS011;33036;51.320;17.234;2022-11-20T08:48:12;122.57;;;43.58;;
47299;SDS011;33036;51.320;17.234;2022-11-20T08:52:14;120.65;;;43.70;;
47299;SDS011;33036;51.320;17.234;2022-11-20T08:56:15;125.38;;;45.75;;
47299;SDS011;33036;51.320;17.234;2022-11-20T09:00:17;129.27;;;47.45;;
47299;SDS011;33036;51.320;17.234;2022-11-20T09:04:18;211.35;;;63.33;;
47299;SDS011;33036;51.320;17.234;2022-11-20T09:08:19;139.25;;;49.38;;
47299;SDS011;33036;51.320;17.234;2022-11-20T09:12:20;147.75;;;50.72;;
47299;SDS011;33036;51.320;17.234;2022-11-20T09:16:21;126.30;;;46.13;;
47299;SDS011;33036;51.320;17.234;2022-11-20T09:20:22;139.00;;;48.53;;
47299;SDS011;33036;51.320;17.234;2022-11-20T09:24:26;103.97;;;40.08;;
47299;SDS011;33036;51.320;17.234;2022-11-20T09:28:28;169.77;;;49.88;;
47299;SDS011;33036;51.320;17.234;2022-11-20T09:32:31;112.80;;;38.15;;
47299;SDS011;33036;51.320;17.234;2022-11-20T09:36:32;143.02;;;48.45;;
47299;SDS011;33036;51.320;17.234;2022-11-20T09:40:34;103.43;;;37.00;;
47299;SDS011;33036;51.320;17.234;2022-11-20T09:44:48;93.13;;;34.97;;
47299;SDS011;33036;51.320;17.234;2022-11-20T09:57:51;92.47;;;35.28;;
47299;SDS011;33036;51.320;17.234;2022-11-20T10:01:53;93.85;;;33.80;;
47299;SDS011;33036;51.320;17.234;2022-11-20T10:05:58;70.55;;;26.75;;
47299;SDS011;33036;51.320;17.234;2022-11-20T10:10:00;75.85;;;28.25;;
47299;SDS011;33036;51.320;17.234;2022-11-20T10:18:40;66.97;;;27.10;;
47299;SDS011;33036;51.320;17.234;2022-11-20T10:31:02;61.67;;;25.98;;
47299;SDS011;33036;51.320;17.234;2022-11-20T10:39:29;80.25;;;27.17;;
47299;SDS011;33036;51.320;17.234;2022-11-20T10:43:40;75.72;;;29.13;;
47299;SDS011;33036;51.320;17.234;2022-11-20T10:47:41;73.57;;;27.02;;
47299;SDS011;33036;51.320;17.234;2022-11-20T10:55:56;82.55;;;29.55;;
47299;SDS011;33036;51.320;17.234;2022-11-20T11:00:05;64.60;;;23.70;;
47299;SDS011;33036;51.320;17.234;2022-11-20T11:08:32;64.13;;;26.20;;
47299;SDS011;33036;51.320;17.234;2022-11-20T11:12:36;63.22;;;25.02;;
47299;SDS011;33036;51.320;17.234;2022-11-20T11:16:44;71.63;;;26.80;;
47299;SDS011;33036;51.320;17.234;2022-11-20T11:20:54;70.28;;;26.13;;
47299;SDS011;33036;51.320;17.234;2022-11-20T11:24:56;63.97;;;25.88;;
47299;SDS011;33036;51.320;17.234;2022-11-20T11:28:58;76.80;;;30.85;;
47299;SDS011;33036;51.320;17.234;2022-11-20T11:33:04;69.72;;;27.70;;
47299;SDS011;33036;51.320;17.234;2022-11-20T11:37:15;66.30;;;26.52;;
47299;SDS011;33036;51.320;17.234;2022-11-20T11:41:22;60.45;;;23.58;;
47299;SDS011;33036;51.320;17.234;2022-11-20T11:45:25;60.83;;;24.25;;
47299;SDS011;33036;51.320;17.234;2022-11-20T11:49:27;65.57;;;26.73;;
47299;SDS011;33036;51.320;17.234;2022-11-20T11:53:28;66.13;;;25.88;;
47299;SDS011;33036;51.320;17.234;2022-11-20T11:57:36;60.72;;;23.98;;
47299;SDS011;33036;51.320;17.234;2022-11-20T12:01:44;62.78;;;24.15;;
47299;SDS011;33036;51.320;17.234;2022-11-20T12:05:55;59.78;;;25.48;;
47299;SDS011;33036;51.320;17.234;2022-11-20T12:09:58;57.55;;;24.25;;
47299;SDS011;33036;51.320;17.234;2022-11-20T12:14:09;58.00;;;23.70;;
47299;SDS011;33036;51.320;17.234;2022-11-20T12:18:22;59.38;;;24.70;;
47299;SDS011;33036;51.320;17.234;2022-11-20T12:39:41;60.07;;;26.33;;
47299;SDS011;33036;51.320;17.234;2022-11-20T12:43:47;61.50;;;28.17;;
47299;SDS011;33036;51.320;17.234;2022-11-20T12:48:29;56.17;;;28.30;;
47299;SDS011;33036;51.320;17.234;2022-11-20T12:52:38;59.20;;;26.30;;
47299;SDS011;33036;51.320;17.234;2022-11-20T13:10:01;57.67;;;25.92;;
47299;SDS011;33036;51.320;17.234;2022-11-20T13:18:41;52.17;;;23.35;;
47299;SDS011;33036;51.320;17.234;2022-11-20T13:22:49;50.53;;;24.27;;
47299;SDS011;33036;51.320;17.234;2022-11-20T13:31:09;51.00;;;22.38;;
47299;SDS011;33036;51.320;17.234;2022-11-20T13:35:26;50.03;;;22.67;;
47299;SDS011;33036;51.320;17.234;2022-11-20T13:39:34;46.00;;;22.63;;
47299;SDS011;33036;51.320;17.234;2022-11-20T13:43:42;48.97;;;22.85;;
47299;SDS011;33036;51.320;17.234;2022-11-20T13:47:47;55.25;;;23.70;;
47299;SDS011;33036;51.320;17.234;2022-11-20T13:51:50;56.28;;;22.98;;
47299;SDS011;33036;51.320;17.234;2022-11-20T13:55:59;51.17;;;22.65;;
47299;SDS011;33036;51.320;17.234;2022-11-20T14:00:08;47.40;;;20.25;;
47299;SDS011;33036;51.320;17.234;2022-11-20T14:04:17;52.58;;;22.10;;
47299;SDS011;33036;51.320;17.234;2022-11-20T14:08:24;47.17;;;21.70;;
47299;SDS011;33036;51.320;17.234;2022-11-20T14:12:34;51.55;;;22.35;;
47299;SDS011;33036;51.320;17.234;2022-11-20T14:16:37;56.05;;;23.80;;
47299;SDS011;33036;51.320;17.234;2022-11-20T14:20:38;54.83;;;22.98;;
47299;SDS011;33036;51.320;17.234;2022-11-20T14:24:39;62.17;;;25.30;;
47299;SDS011;33036;51.320;17.234;2022-11-20T14:28:40;59.25;;;24.67;;
47299;SDS011;33036;51.320;17.234;2022-11-20T14:32:42;65.72;;;24.95;;
47299;SDS011;33036;51.320;17.234;2022-11-20T14:36:43;56.65;;;24.17;;
47299;SDS011;33036;51.320;17.234;2022-11-20T14:40:45;56.30;;;24.25;;
47299;SDS011;33036;51.320;17.234;2022-11-20T14:44:47;61.58;;;26.08;;
47299;SDS011;33036;51.320;17.234;2022-11-20T14:48:50;66.55;;;28.23;;
47299;SDS011;33036;51.320;17.234;2022-11-20T14:52:53;199.98;;;60.25;;
47299;SDS011;33036;51.320;17.234;2022-11-20T14:57:00;238.43;;;69.75;;
47299;SDS011;33036;51.320;17.234;2022-11-20T15:01:03;242.10;;;76.63;;
47299;SDS011;33036;51.320;17.234;2022-11-20T15:05:06;208.80;;;68.45;;
47299;SDS011;33036;51.320;17.234;2022-11-20T15:09:12;172.13;;;59.17;;
47299;SDS011;33036;51.320;17.234;2022-11-20T15:13:34;211.05;;;73.18;;
47299;SDS011;33036;51.320;17.234;2022-11-20T15:17:37;258.25;;;87.20;;
47299;SDS011;33036;51.320;17.234;2022-11-20T15:21:40;218.65;;;74.82;;
47299;SDS011;33036;51.320;17.234;2022-11-20T15:25:42;175.18;;;62.70;;
47299;SDS011;33036;51.320;17.234;2022-11-20T15:29:43;163.68;;;57.58;;
47299;SDS011;33036;51.320;17.234;2022-11-20T15:33:44;146.82;;;55.45;;
47299;SDS011;33036;51.320;17.234;2022-11-20T15:37:45;497.15;;;137.52;;
47299;SDS011;33036;51.320;17.234;2022-11-20T15:41:46;427.50;;;120.75;;
47299;SDS011;33036;51.320;17.234;2022-11-20T15:45:49;524.25;;;145.00;;
47299;SDS011;33036;51.320;17.234;2022-11-20T15:49:58;469.60;;;125.88;;
47299;SDS011;33036;51.320;17.234;2022-11-20T15:53:59;452.77;;;123.30;;
47299;SDS011;33036;51.320;17.234;2022-11-20T15:58:02;342.08;;;93.22;;
47299;SDS011;33036;51.320;17.234;2022-11-20T16:02:07;351.83;;;93.50;;
47299;SDS011;33036;51.320;17.234;2022-11-20T16:06:24;327.48;;;90.72;;
47299;SDS011;33036;51.320;17.234;2022-11-20T16:10:25;345.13;;;97.00;;
47299;SDS011;33036;51.320;17.234;2022-11-20T16:14:26;269.80;;;83.93;;
47299;SDS011;33036;51.320;17.234;2022-11-20T16:18:45;312.58;;;90.65;;
47299;SDS011;33036;51.320;17.234;2022-11-20T16:22:47;163.35;;;56.70;;
47299;SDS011;33036;51.320;17.234;2022-11-20T16:26:48;191.20;;;62.05;;
47299;SDS011;33036;51.320;17.234;2022-11-20T16:30:49;178.85;;;56.72;;
47299;SDS011;33036;51.320;17.234;2022-11-20T16:34:50;188.32;;;57.03;;
47299;SDS011;33036;51.320;17.234;2022-11-20T16:38:55;148.30;;;47.53;;
47299;SDS011;33036;51.320;17.234;2022-11-20T16:42:56;156.57;;;51.67;;
47299;SDS011;33036;51.320;17.234;2022-11-20T16:46:58;117.50;;;43.20;;
47299;SDS011;33036;51.320;17.234;2022-11-20T16:50:59;114.22;;;41.05;;
47299;SDS011;33036;51.320;17.234;2022-11-20T16:55:00;78.63;;;29.52;;
47299;SDS011;33036;51.320;17.234;2022-11-20T16:59:01;59.70;;;21.58;;
47299;SDS011;33036;51.320;17.234;2022-11-20T17:03:03;58.10;;;22.23;;
47299;SDS011;33036;51.320;17.234;2022-11-20T17:07:05;58.00;;;21.45;;
47299;SDS011;33036;51.320;17.234;2022-11-20T17:11:07;53.42;;;21.27;;
47299;SDS011;33036;51.320;17.234;2022-11-20T17:15:08;59.92;;;20.75;;
47299;SDS011;33036;51.320;17.234;2022-11-20T17:19:10;58.53;;;21.00;;
47299;SDS011;33036;51.320;17.234;2022-11-20T17:23:11;54.85;;;21.52;;
47299;SDS011;33036;51.320;17.234;2022-11-20T17:27:12;55.08;;;21.40;;
47299;SDS011;33036;51.320;17.234;2022-11-20T17:31:14;61.97;;;22.63;;
47299;SDS011;33036;51.320;17.234;2022-11-20T17:35:17;62.88;;;23.92;;
47299;SDS011;33036;51.320;17.234;2022-11-20T17:39:18;67.32;;;24.98;;
47299;SDS011;33036;51.320;17.234;2022-11-20T17:43:19;72.45;;;24.88;;
47299;SDS011;33036;51.320;17.234;2022-11-20T17:47:20;81.28;;;29.38;;
47299;SDS011;33036;51.320;17.234;2022-11-20T17:51:22;75.13;;;28.25;;
47299;SDS011;33036;51.320;17.234;2022-11-20T17:55:27;84.60;;;29.10;;
47299;SDS011;33036;51.320;17.234;2022-11-20T17:59:48;85.28;;;31.15;;
47299;SDS011;33036;51.320;17.234;2022-11-20T18:03:49;79.60;;;28.48;;
47299;SDS011;33036;51.320;17.234;2022-11-20T18:07:51;84.10;;;29.25;;
47299;SDS011;33036;51.320;17.234;2022-11-20T18:11:53;83.80;;;30.63;;
47299;SDS011;33036;51.320;17.234;2022-11-20T18:15:54;81.22;;;29.05;;
47299;SDS011;33036;51.320;17.234;2022-11-20T18:19:55;77.75;;;28.63;;
47299;SDS011;33036;51.320;17.234;2022-11-20T18:23:56;78.85;;;28.45;;
47299;SDS011;33036;51.320;17.234;2022-11-20T18:27:57;74.35;;;29.00;;
47299;SDS011;33036;51.320;17.234;2022-11-20T18:31:59;79.10;;;27.70;;
47299;SDS011;33036;51.320;17.234;2022-11-20T18:36:10;74.65;;;26.58;;
47299;SDS011;33036;51.320;17.234;2022-11-20T18:40:12;68.35;;;25.33;;
47299;SDS011;33036;51.320;17.234;2022-11-20T18:44:15;68.13;;;26.63;;
47299;SDS011;33036;51.320;17.234;2022-11-20T18:48:36;73.97;;;26.40;;
47299;SDS011;33036;51.320;17.234;2022-11-20T18:52:41;70.03;;;25.88;;
47299;SDS011;33036;51.320;17.234;2022-11-20T18:56:47;69.25;;;26.23;;
47299;SDS011;33036;51.320;17.234;2022-11-20T19:00:48;61.22;;;24.30;;
47299;SDS011;33036;51.320;17.234;2022-11-20T19:04:49;71.50;;;24.88;;
47299;SDS011;33036;51.320;17.234;2022-11-20T19:08:51;64.10;;;22.50;;
47299;SDS011;33036;51.320;17.234;2022-11-20T19:12:52;61.35;;;21.55;;
47299;SDS011;33036;51.320;17.234;2022-11-20T19:16:53;52.75;;;19.35;;
47299;SDS011;33036;51.320;17.234;2022-11-20T19:20:54;47.25;;;18.27;;
47299;SDS011;33036;51.320;17.234;2022-11-20T19:24:57;51.38;;;19.52;;
47299;SDS011;33036;51.320;17.234;2022-11-20T19:28:59;74.20;;;30.67;;
47299;SDS011;33036;51.320;17.234;2022-11-20T19:33:01;67.30;;;27.90;;
47299;SDS011;33036;51.320;17.234;2022-11-20T19:37:03;48.58;;;18.88;;
47299;SDS011;33036;51.320;17.234;2022-11-20T19:41:06;46.17;;;18.17;;
47299;SDS011;33036;51.320;17.234;2022-11-20T19:45:08;52.92;;;21.60;;
47299;SDS011;33036;51.320;17.234;2022-11-20T19:49:10;45.55;;;16.92;;
47299;SDS011;33036;51.320;17.234;2022-11-20T19:53:12;46.53;;;17.17;;
47299;SDS011;33036;51.320;17.234;2022-11-20T19:57:15;47.05;;;17.13;;
47299;SDS011;33036;51.320;17.234;2022-11-20T20:01:18;49.60;;;18.13;;
47299;SDS011;33036;51.320;17.234;2022-11-20T20:05:20;41.58;;;16.80;;
47299;SDS011;33036;51.320;17.234;2022-11-20T20:09:22;41.05;;;16.67;;
47299;SDS011;33036;51.320;17.234;2022-11-20T20:13:23;45.30;;;18.17;;
47299;SDS011;33036;51.320;17.234;2022-11-20T20:17:25;51.83;;;19.92;;
47299;SDS011;33036;51.320;17.234;2022-11-20T20:21:26;53.40;;;20.25;;
47299;SDS011;33036;51.320;17.234;2022-11-20T20:25:30;54.13;;;20.55;;
47299;SDS011;33036;51.320;17.234;2022-11-20T20:29:31;55.08;;;20.88;;
47299;SDS011;33036;51.320;17.234;2022-11-20T20:33:32;52.45;;;21.20;;
47299;SDS011;33036;51.320;17.234;2022-11-20T20:37:37;60.13;;;23.15;;
47299;SDS011;33036;51.320;17.234;2022-11-20T20:41:41;71.13;;;27.38;;
47299;SDS011;33036;51.320;17.234;2022-11-20T20:45:47;75.93;;;27.55;;
47299;SDS011;33036;51.320;17.234;2022-11-20T20:49:49;61.85;;;25.00;;
47299;SDS011;33036;51.320;17.234;2022-11-20T20:53:51;66.05;;;24.70;;
47299;SDS011;33036;51.320;17.234;2022-11-20T20:57:53;66.65;;;25.70;;
47299;SDS011;33036;51.320;17.234;2022-11-20T21:01:55;68.22;;;24.38;;
47299;SDS011;33036;51.320;17.234;2022-11-20T21:05:56;67.32;;;23.40;;
47299;SDS011;33036;51.320;17.234;2022-11-20T21:09:58;65.15;;;24.70;;
47299;SDS011;33036;51.320;17.234;2022-11-20T21:13:59;59.10;;;21.77;;
47299;SDS011;33036;51.320;17.234;2022-11-20T21:18:00;51.47;;;20.35;;
47299;SDS011;33036;51.320;17.234;2022-11-20T21:22:00;53.90;;;21.23;;
47299;SDS011;33036;51.320;17.234;2022-11-20T21:26:05;50.00;;;19.13;;
47299;SDS011;33036;51.320;17.234;2022-11-20T21:30:07;57.05;;;20.30;;
47299;SDS011;33036;51.320;17.234;2022-11-20T21:34:10;52.00;;;21.17;;
47299;SDS011;33036;51.320;17.234;2022-11-20T21:38:12;56.10;;;21.40;;
47299;SDS011;33036;51.320;17.234;2022-11-20T21:42:13;64.65;;;23.65;;
47299;SDS011;33036;51.320;17.234;2022-11-20T21:46:14;94.88;;;33.30;;
47299;SDS011;33036;51.320;17.234;2022-11-20T21:50:17;82.70;;;30.00;;
47299;SDS011;33036;51.320;17.234;2022-11-20T21:54:23;106.47;;;34.03;;
47299;SDS011;33036;51.320;17.234;2022-11-20T21:58:25;123.80;;;33.55;;
47299;SDS011;33036;51.320;17.234;2022-11-20T22:02:26;107.70;;;32.58;;
47299;SDS011;33036;51.320;17.234;2022-11-20T22:06:31;116.20;;;36.45;;
47299;SDS011;33036;51.320;17.234;2022-11-20T22:10:33;160.27;;;44.53;;
47299;SDS011;33036;51.320;17.234;2022-11-20T22:14:34;236.07;;;62.22;;
47299;SDS011;33036;51.320;17.234;2022-11-20T22:18:35;186.82;;;52.67;;
47299;SDS011;33036;51.320;17.234;2022-11-20T22:22:38;169.15;;;51.13;;
47299;SDS011;33036;51.320;17.234;2022-11-20T22:26:39;142.68;;;46.13;;
47299;SDS011;33036;51.320;17.234;2022-11-20T22:30:40;142.05;;;46.20;;
47299;SDS011;33036;51.320;17.234;2022-11-20T22:34:41;167.10;;;53.15;;
47299;SDS011;33036;51.320;17.234;2022-11-20T22:38:42;189.38;;;57.75;;
47299;SDS011;33036;51.320;17.234;2022-11-20T22:42:44;141.77;;;46.65;;
47299;SDS011;33036;51.320;17.234;2022-11-20T22:46:45;104.97;;;33.95;;
47299;SDS011;33036;51.320;17.234;2022-11-20T22:50:46;101.88;;;34.83;;
47299;SDS011;33036;51.320;17.234;2022-11-20T22:54:47;94.28;;;32.35;;
47299;SDS011;33036;51.320;17.234;2022-11-20T22:58:49;109.47;;;38.15;;
47299;SDS011;33036;51.320;17.234;2022-11-20T23:02:51;119.00;;;38.05;;
47299;SDS011;33036;51.320;17.234;2022-11-20T23:06:52;113.75;;;36.10;;
47299;SDS011;33036;51.320;17.234;2022-11-20T23:10:57;91.20;;;32.10;;
47299;SDS011;33036;51.320;17.234;2022-11-20T23:15:09;93.43;;;32.67;;
47299;SDS011;33036;51.320;17.234;2022-11-20T23:19:11;103.15;;;32.80;;
47299;SDS011;33036;51.320;17.234;2022-11-20T23:23:13;103.88;;;33.95;;
47299;SDS011;33036;51.320;17.234;2022-11-20T23:27:14;91.57;;;31.27;;
47299;SDS011;33036;51.320;17.234;2022-11-20T23:31:15;102.60;;;35.20;;
47299;SDS011;33036;51.320;17.234;2022-11-20T23:35:16;100.10;;;34.58;;
47299;SDS011;33036;51.320;17.234;2022-11-20T23:39:17;102.70;;;34.58;;
47299;SDS011;33036;51.320;17.234;2022-11-20T23:43:19;101.32;;;32.95;;
47299;SDS011;33036;51.320;17.234;2022-11-20T23:47:21;96.70;;;32.67;;
47299;SDS011;33036;51.320;17.234;2022-11-20T23:51:21;101.07;;;32.53;;
47299;SDS011;33036;51.320;17.234;2022-11-20T23:55:22;107.50;;;33.58;;
47299;SDS011;33036;51.320;17.234;2022-11-20T23:59:23;103.82;;;35.85;;
